sensor_id;sensor_type;location;lat;lon;timestamp;temperature;humidity
1379;DHT22;683;48.738;9.226;2023-06-19T00:02:12;22.40;58.40
1379;DHT22;683;48.738;9.226;2023-06-19T00:04:39;22.40;58.60
1379;DHT22;683;48.738;9.226;2023-06-19T00:07:06;22.40;58.50
1379;DHT22;683;48.738;9.226;2023-06-19T00:09:34;22.40;58.50
1379;DHT22;683;48.738;9.226;2023-06-19T00:12:03;22.40;58.50
1379;DHT22;683;48.738;9.226;2023-06-19T00:14:31;22.30;58.60
1379;DHT22;683;48.738;9.226;2023-06-19T00:16:58;22.30;58.70
1379;DHT22;683;48.738;9.226;2023-06-19T00:19:26;22.30;58.90
1379;DHT22;683;48.738;9.226;2023-06-19T00:21:54;22.20;59.20
1379;DHT22;683;48.738;9.226;2023-06-19T00:24:23;22.20;59.40
1379;DHT22;683;48.738;9.226;2023-06-19T00:26:50;22.20;59.50
1379;DHT22;683;48.738;9.226;2023-06-19T00:29:19;22.20;59.60
1379;DHT22;683;48.738;9.226;2023-06-19T00:31:47;22.20;59.80
1379;DHT22;683;48.738;9.226;2023-06-19T00:34:15;22.20;60.00
1379;DHT22;683;48.738;9.226;2023-06-19T00:36:42;22.10;60.10
1379;DHT22;683;48.738;9.226;2023-06-19T00:39:10;22.10;60.00
1379;DHT22;683;48.738;9.226;2023-06-19T00:41:39;22.10;60.30
1379;DHT22;683;48.738;9.226;2023-06-19T00:44:07;22.20;60.60
1379;DHT22;683;48.738;9.226;2023-06-19T00:46:38;22.10;60.60
1379;DHT22;683;48.738;9.226;2023-06-19T00:49:07;22.10;60.80
1379;DHT22;683;48.738;9.226;2023-06-19T00:51:35;22.00;60.80
1379;DHT22;683;48.738;9.226;2023-06-19T00:54:03;22.00;61.00
1379;DHT22;683;48.738;9.226;2023-06-19T00:56:31;22.00;61.00
1379;DHT22;683;48.738;9.226;2023-06-19T00:59:02;22.00;61.10
1379;DHT22;683;48.738;9.226;2023-06-19T01:01:33;22.00;61.40
1379;DHT22;683;48.738;9.226;2023-06-19T01:04:03;22.00;61.40
1379;DHT22;683;48.738;9.226;2023-06-19T01:06:38;21.90;61.40
1379;DHT22;683;48.738;9.226;2023-06-19T01:09:09;21.90;61.50
1379;DHT22;683;48.738;9.226;2023-06-19T01:11:42;21.90;61.70
1379;DHT22;683;48.738;9.226;2023-06-19T01:14:15;21.90;61.70
1379;DHT22;683;48.738;9.226;2023-06-19T01:16:45;21.90;61.90
1379;DHT22;683;48.738;9.226;2023-06-19T01:19:18;21.90;61.80
1379;DHT22;683;48.738;9.226;2023-06-19T01:21:46;21.90;61.80
1379;DHT22;683;48.738;9.226;2023-06-19T01:24:15;21.90;62.00
1379;DHT22;683;48.738;9.226;2023-06-19T01:26:42;21.90;62.10
1379;DHT22;683;48.738;9.226;2023-06-19T01:29:12;21.90;62.00
1379;DHT22;683;48.738;9.226;2023-06-19T01:31:48;21.90;61.70
1379;DHT22;683;48.738;9.226;2023-06-19T01:34:18;21.90;61.20
1379;DHT22;683;48.738;9.226;2023-06-19T01:36:48;21.90;60.60
1379;DHT22;683;48.738;9.226;2023-06-19T01:39:18;21.90;60.40
1379;DHT22;683;48.738;9.226;2023-06-19T01:41:47;21.90;60.50
1379;DHT22;683;48.738;9.226;2023-06-19T01:44:15;21.90;60.70
1379;DHT22;683;48.738;9.226;2023-06-19T01:46:47;21.90;60.80
1379;DHT22;683;48.738;9.226;2023-06-19T01:49:15;21.80;61.30
1379;DHT22;683;48.738;9.226;2023-06-19T01:51:42;21.80;62.00
1379;DHT22;683;48.738;9.226;2023-06-19T01:54:10;21.80;62.20
1379;DHT22;683;48.738;9.226;2023-06-19T01:56:39;21.80;62.40
1379;DHT22;683;48.738;9.226;2023-06-19T01:59:07;21.70;62.50
1379;DHT22;683;48.738;9.226;2023-06-19T02:01:34;21.70;62.70
1379;DHT22;683;48.738;9.226;2023-06-19T02:04:02;21.60;62.70
1379;DHT22;683;48.738;9.226;2023-06-19T02:06:30;21.60;63.00
1379;DHT22;683;48.738;9.226;2023-06-19T02:08:58;21.60;63.60
1379;DHT22;683;48.738;9.226;2023-06-19T02:11:25;21.50;63.90
1379;DHT22;683;48.738;9.226;2023-06-19T02:13:55;21.50;64.20
1379;DHT22;683;48.738;9.226;2023-06-19T02:16:23;21.50;64.70
1379;DHT22;683;48.738;9.226;2023-06-19T02:18:50;21.50;65.10
1379;DHT22;683;48.738;9.226;2023-06-19T02:21:18;21.40;65.40
1379;DHT22;683;48.738;9.226;2023-06-19T02:23:45;21.40;66.00
1379;DHT22;683;48.738;9.226;2023-06-19T02:26:13;21.40;66.40
1379;DHT22;683;48.738;9.226;2023-06-19T02:28:40;21.30;66.80
1379;DHT22;683;48.738;9.226;2023-06-19T02:31:09;21.30;67.20
1379;DHT22;683;48.738;9.226;2023-06-19T02:33:37;21.30;67.60
1379;DHT22;683;48.738;9.226;2023-06-19T02:36:05;21.20;67.80
1379;DHT22;683;48.738;9.226;2023-06-19T02:38:32;21.20;68.20
1379;DHT22;683;48.738;9.226;2023-06-19T02:41:01;21.20;68.40
1379;DHT22;683;48.738;9.226;2023-06-19T02:43:29;21.20;68.70
1379;DHT22;683;48.738;9.226;2023-06-19T02:45:57;21.20;68.90
1379;DHT22;683;48.738;9.226;2023-06-19T02:48:25;21.10;69.00
1379;DHT22;683;48.738;9.226;2023-06-19T02:50:53;21.10;69.10
1379;DHT22;683;48.738;9.226;2023-06-19T02:53:20;21.10;69.20
1379;DHT22;683;48.738;9.226;2023-06-19T02:55:48;21.10;69.20
1379;DHT22;683;48.738;9.226;2023-06-19T02:58:15;21.10;69.30
1379;DHT22;683;48.738;9.226;2023-06-19T03:00:43;21.00;69.50
1379;DHT22;683;48.738;9.226;2023-06-19T03:03:10;21.00;69.90
1379;DHT22;683;48.738;9.226;2023-06-19T03:05:40;21.00;70.10
1379;DHT22;683;48.738;9.226;2023-06-19T03:08:07;21.00;70.20
1379;DHT22;683;48.738;9.226;2023-06-19T03:10:35;21.00;70.50
1379;DHT22;683;48.738;9.226;2023-06-19T03:13:03;21.00;70.80
1379;DHT22;683;48.738;9.226;2023-06-19T03:15:31;21.00;71.20
1379;DHT22;683;48.738;9.226;2023-06-19T03:17:59;21.00;71.60
1379;DHT22;683;48.738;9.226;2023-06-19T03:20:30;20.90;71.60
1379;DHT22;683;48.738;9.226;2023-06-19T03:22:59;20.90;71.60
1379;DHT22;683;48.738;9.226;2023-06-19T03:25:27;20.90;71.90
1379;DHT22;683;48.738;9.226;2023-06-19T03:28:02;20.90;73.00
1379;DHT22;683;48.738;9.226;2023-06-19T03:30:30;20.90;73.80
1379;DHT22;683;48.738;9.226;2023-06-19T03:32:58;20.80;74.50
1379;DHT22;683;48.738;9.226;2023-06-19T03:35:46;20.80;75.00
1379;DHT22;683;48.738;9.226;2023-06-19T03:38:26;20.70;75.40
1379;DHT22;683;48.738;9.226;2023-06-19T03:40:54;20.70;75.80
1379;DHT22;683;48.738;9.226;2023-06-19T03:43:21;20.60;76.00
1379;DHT22;683;48.738;9.226;2023-06-19T03:45:49;20.60;76.50
1379;DHT22;683;48.738;9.226;2023-06-19T03:48:17;20.50;76.70
1379;DHT22;683;48.738;9.226;2023-06-19T03:50:44;20.50;76.80
1379;DHT22;683;48.738;9.226;2023-06-19T03:53:12;20.50;77.10
1379;DHT22;683;48.738;9.226;2023-06-19T03:55:41;20.50;77.60
1379;DHT22;683;48.738;9.226;2023-06-19T03:58:08;20.40;77.40
1379;DHT22;683;48.738;9.226;2023-06-19T04:00:36;20.30;77.30
1379;DHT22;683;48.738;9.226;2023-06-19T04:03:03;20.30;77.60
1379;DHT22;683;48.738;9.226;2023-06-19T04:05:31;20.30;77.90
1379;DHT22;683;48.738;9.226;2023-06-19T04:07:58;20.30;77.80
1379;DHT22;683;48.738;9.226;2023-06-19T04:10:26;20.20;77.90
1379;DHT22;683;48.738;9.226;2023-06-19T04:12:55;20.20;78.00
1379;DHT22;683;48.738;9.226;2023-06-19T04:15:23;20.20;78.20
1379;DHT22;683;48.738;9.226;2023-06-19T04:17:50;20.20;78.30
1379;DHT22;683;48.738;9.226;2023-06-19T04:20:18;20.20;79.30
1379;DHT22;683;48.738;9.226;2023-06-19T04:22:47;20.20;79.70
1379;DHT22;683;48.738;9.226;2023-06-19T04:25:14;20.20;79.90
1379;DHT22;683;48.738;9.226;2023-06-19T04:27:42;20.20;80.00
1379;DHT22;683;48.738;9.226;2023-06-19T04:30:12;20.20;79.90
1379;DHT22;683;48.738;9.226;2023-06-19T04:32:40;20.20;80.20
1379;DHT22;683;48.738;9.226;2023-06-19T04:35:08;20.20;80.20
1379;DHT22;683;48.738;9.226;2023-06-19T04:37:36;20.20;80.60
1379;DHT22;683;48.738;9.226;2023-06-19T04:40:04;20.20;80.70
1379;DHT22;683;48.738;9.226;2023-06-19T04:42:33;20.20;81.10
1379;DHT22;683;48.738;9.226;2023-06-19T04:45:00;20.20;80.90
1379;DHT22;683;48.738;9.226;2023-06-19T04:47:29;20.20;81.10
1379;DHT22;683;48.738;9.226;2023-06-19T04:49:57;20.20;81.10
1379;DHT22;683;48.738;9.226;2023-06-19T04:52:24;20.30;81.00
1379;DHT22;683;48.738;9.226;2023-06-19T04:54:52;20.30;80.80
1379;DHT22;683;48.738;9.226;2023-06-19T04:57:19;20.40;80.70
1379;DHT22;683;48.738;9.226;2023-06-19T04:59:47;20.50;80.70
1379;DHT22;683;48.738;9.226;2023-06-19T05:02:16;20.60;80.40
1379;DHT22;683;48.738;9.226;2023-06-19T05:04:45;20.70;80.20
1379;DHT22;683;48.738;9.226;2023-06-19T05:07:12;20.80;80.20
1379;DHT22;683;48.738;9.226;2023-06-19T05:09:41;20.90;80.00
1379;DHT22;683;48.738;9.226;2023-06-19T05:12:10;21.10;79.80
1379;DHT22;683;48.738;9.226;2023-06-19T05:14:38;21.20;79.80
1379;DHT22;683;48.738;9.226;2023-06-19T05:17:06;21.30;79.60
1379;DHT22;683;48.738;9.226;2023-06-19T05:19:35;21.40;79.60
1379;DHT22;683;48.738;9.226;2023-06-19T05:22:05;21.40;79.30
1379;DHT22;683;48.738;9.226;2023-06-19T05:24:32;21.40;79.20
1379;DHT22;683;48.738;9.226;2023-06-19T05:27:00;21.40;79.20
1379;DHT22;683;48.738;9.226;2023-06-19T05:29:27;21.40;79.10
1379;DHT22;683;48.738;9.226;2023-06-19T05:31:56;21.40;78.70
1379;DHT22;683;48.738;9.226;2023-06-19T05:34:24;21.30;78.70
1379;DHT22;683;48.738;9.226;2023-06-19T05:36:52;21.30;79.20
1379;DHT22;683;48.738;9.226;2023-06-19T05:39:20;21.20;79.20
1379;DHT22;683;48.738;9.226;2023-06-19T05:41:48;21.20;79.50
1379;DHT22;683;48.738;9.226;2023-06-19T05:44:15;21.20;79.70
1379;DHT22;683;48.738;9.226;2023-06-19T05:46:44;21.10;79.80
1379;DHT22;683;48.738;9.226;2023-06-19T05:49:12;21.00;80.40
1379;DHT22;683;48.738;9.226;2023-06-19T05:51:39;21.00;81.00
1379;DHT22;683;48.738;9.226;2023-06-19T05:54:07;21.00;81.20
1379;DHT22;683;48.738;9.226;2023-06-19T05:56:37;21.00;81.60
1379;DHT22;683;48.738;9.226;2023-06-19T05:59:04;21.10;81.70
1379;DHT22;683;48.738;9.226;2023-06-19T06:01:32;21.20;81.40
1379;DHT22;683;48.738;9.226;2023-06-19T06:03:59;21.30;81.10
1379;DHT22;683;48.738;9.226;2023-06-19T06:06:28;21.50;80.60
1379;DHT22;683;48.738;9.226;2023-06-19T06:08:55;21.50;80.40
1379;DHT22;683;48.738;9.226;2023-06-19T06:11:23;21.70;80.20
1379;DHT22;683;48.738;9.226;2023-06-19T06:13:52;21.80;79.20
1379;DHT22;683;48.738;9.226;2023-06-19T06:16:19;21.80;79.50
1379;DHT22;683;48.738;9.226;2023-06-19T06:18:47;21.80;79.20
1379;DHT22;683;48.738;9.226;2023-06-19T06:21:14;21.80;79.40
1379;DHT22;683;48.738;9.226;2023-06-19T06:23:42;21.80;79.60
1379;DHT22;683;48.738;9.226;2023-06-19T06:26:10;21.80;79.40
1379;DHT22;683;48.738;9.226;2023-06-19T06:28:38;21.80;79.30
1379;DHT22;683;48.738;9.226;2023-06-19T06:31:07;21.80;79.30
1379;DHT22;683;48.738;9.226;2023-06-19T06:33:34;21.90;79.40
1379;DHT22;683;48.738;9.226;2023-06-19T06:36:02;22.00;79.10
1379;DHT22;683;48.738;9.226;2023-06-19T06:38:30;22.10;79.10
1379;DHT22;683;48.738;9.226;2023-06-19T06:40:57;22.20;79.10
1379;DHT22;683;48.738;9.226;2023-06-19T06:43:25;22.30;78.90
1379;DHT22;683;48.738;9.226;2023-06-19T06:45:53;22.50;78.50
1379;DHT22;683;48.738;9.226;2023-06-19T06:48:22;22.70;78.00
1379;DHT22;683;48.738;9.226;2023-06-19T06:50:49;22.90;77.20
1379;DHT22;683;48.738;9.226;2023-06-19T06:53:17;23.10;76.40
1379;DHT22;683;48.738;9.226;2023-06-19T06:55:44;23.20;74.80
1379;DHT22;683;48.738;9.226;2023-06-19T06:58:12;23.30;74.10
1379;DHT22;683;48.738;9.226;2023-06-19T07:00:40;23.40;73.40
1379;DHT22;683;48.738;9.226;2023-06-19T07:03:07;23.40;72.90
1379;DHT22;683;48.738;9.226;2023-06-19T07:05:36;23.40;73.10
1379;DHT22;683;48.738;9.226;2023-06-19T07:08:04;23.50;73.40
1379;DHT22;683;48.738;9.226;2023-06-19T07:10:31;23.60;73.30
1379;DHT22;683;48.738;9.226;2023-06-19T07:12:59;23.80;71.70
1379;DHT22;683;48.738;9.226;2023-06-19T07:15:26;23.80;70.70
1379;DHT22;683;48.738;9.226;2023-06-19T07:17:54;23.70;70.50
1379;DHT22;683;48.738;9.226;2023-06-19T07:20:21;23.70;69.10
1379;DHT22;683;48.738;9.226;2023-06-19T07:22:53;23.70;68.40
1379;DHT22;683;48.738;9.226;2023-06-19T07:25:21;23.60;68.50
1379;DHT22;683;48.738;9.226;2023-06-19T07:27:51;23.60;68.30
1379;DHT22;683;48.738;9.226;2023-06-19T07:30:18;23.60;68.60
1379;DHT22;683;48.738;9.226;2023-06-19T07:32:46;23.70;68.70
1379;DHT22;683;48.738;9.226;2023-06-19T07:35:14;23.70;69.00
1379;DHT22;683;48.738;9.226;2023-06-19T07:37:41;23.70;69.10
1379;DHT22;683;48.738;9.226;2023-06-19T07:40:11;23.90;69.20
1379;DHT22;683;48.738;9.226;2023-06-19T07:42:39;24.00;68.00
1379;DHT22;683;48.738;9.226;2023-06-19T07:45:07;24.00;67.40
1379;DHT22;683;48.738;9.226;2023-06-19T07:47:35;24.00;67.10
1379;DHT22;683;48.738;9.226;2023-06-19T07:50:03;24.10;67.60
1379;DHT22;683;48.738;9.226;2023-06-19T07:52:30;24.30;67.40
1379;DHT22;683;48.738;9.226;2023-06-19T07:54:58;24.40;67.20
1379;DHT22;683;48.738;9.226;2023-06-19T07:57:27;24.70;67.10
1379;DHT22;683;48.738;9.226;2023-06-19T07:59:55;24.90;66.10
1379;DHT22;683;48.738;9.226;2023-06-19T08:02:22;25.30;65.60
1379;DHT22;683;48.738;9.226;2023-06-19T08:04:50;25.60;64.20
1379;DHT22;683;48.738;9.226;2023-06-19T08:07:17;25.80;63.70
1379;DHT22;683;48.738;9.226;2023-06-19T08:09:45;25.90;62.40
1379;DHT22;683;48.738;9.226;2023-06-19T08:12:13;25.90;61.30
1379;DHT22;683;48.738;9.226;2023-06-19T08:14:42;25.90;61.20
1379;DHT22;683;48.738;9.226;2023-06-19T08:17:09;25.90;61.40
1379;DHT22;683;48.738;9.226;2023-06-19T08:19:37;25.80;60.50
1379;DHT22;683;48.738;9.226;2023-06-19T08:22:05;25.80;60.90
1379;DHT22;683;48.738;9.226;2023-06-19T08:24:33;25.80;61.20
1379;DHT22;683;48.738;9.226;2023-06-19T08:27:01;25.80;60.20
1379;DHT22;683;48.738;9.226;2023-06-19T08:29:29;25.80;60.50
1379;DHT22;683;48.738;9.226;2023-06-19T08:31:58;25.80;60.90
1379;DHT22;683;48.738;9.226;2023-06-19T08:34:25;25.80;60.30
1379;DHT22;683;48.738;9.226;2023-06-19T08:36:53;25.70;60.40
1379;DHT22;683;48.738;9.226;2023-06-19T08:39:20;25.70;60.70
1379;DHT22;683;48.738;9.226;2023-06-19T08:41:48;25.70;61.00
1379;DHT22;683;48.738;9.226;2023-06-19T08:44:16;25.60;60.80
1379;DHT22;683;48.738;9.226;2023-06-19T08:46:44;25.50;60.80
1379;DHT22;683;48.738;9.226;2023-06-19T08:49:13;25.40;61.50
1379;DHT22;683;48.738;9.226;2023-06-19T08:51:40;25.40;61.80
1379;DHT22;683;48.738;9.226;2023-06-19T08:54:08;25.40;61.60
1379;DHT22;683;48.738;9.226;2023-06-19T08:56:39;25.50;61.70
1379;DHT22;683;48.738;9.226;2023-06-19T08:59:11;25.60;62.00
1379;DHT22;683;48.738;9.226;2023-06-19T09:01:39;25.60;61.40
1379;DHT22;683;48.738;9.226;2023-06-19T09:04:12;25.60;59.80
1379;DHT22;683;48.738;9.226;2023-06-19T09:06:50;25.60;60.80
1379;DHT22;683;48.738;9.226;2023-06-19T09:09:19;25.60;61.10
1379;DHT22;683;48.738;9.226;2023-06-19T09:11:57;25.60;61.00
1379;DHT22;683;48.738;9.226;2023-06-19T09:14:32;25.80;61.00
1379;DHT22;683;48.738;9.226;2023-06-19T09:17:00;25.90;60.00
1379;DHT22;683;48.738;9.226;2023-06-19T09:19:30;26.00;59.60
1379;DHT22;683;48.738;9.226;2023-06-19T09:22:00;26.00;58.70
1379;DHT22;683;48.738;9.226;2023-06-19T09:24:33;26.10;58.70
1379;DHT22;683;48.738;9.226;2023-06-19T09:27:08;26.20;58.60
1379;DHT22;683;48.738;9.226;2023-06-19T09:29:39;26.40;57.70
1379;DHT22;683;48.738;9.226;2023-06-19T09:32:17;26.60;56.90
1379;DHT22;683;48.738;9.226;2023-06-19T09:34:49;26.70;55.80
1379;DHT22;683;48.738;9.226;2023-06-19T09:37:23;26.80;55.60
1379;DHT22;683;48.738;9.226;2023-06-19T09:39:53;27.00;55.50
1379;DHT22;683;48.738;9.226;2023-06-19T09:42:26;27.20;56.10
1379;DHT22;683;48.738;9.226;2023-06-19T09:44:58;27.50;55.90
1379;DHT22;683;48.738;9.226;2023-06-19T09:47:31;27.80;55.60
1379;DHT22;683;48.738;9.226;2023-06-19T09:50:01;27.90;53.40
1379;DHT22;683;48.738;9.226;2023-06-19T09:52:29;28.00;53.20
1379;DHT22;683;48.738;9.226;2023-06-19T09:55:06;28.00;53.90
1379;DHT22;683;48.738;9.226;2023-06-19T09:57:35;28.10;54.20
1379;DHT22;683;48.738;9.226;2023-06-19T10:00:06;28.20;53.70
1379;DHT22;683;48.738;9.226;2023-06-19T10:02:41;28.10;52.60
1379;DHT22;683;48.738;9.226;2023-06-19T10:05:10;27.90;52.70
1379;DHT22;683;48.738;9.226;2023-06-19T10:07:42;27.80;53.10
1379;DHT22;683;48.738;9.226;2023-06-19T10:10:11;27.80;53.30
1379;DHT22;683;48.738;9.226;2023-06-19T10:12:40;27.80;53.80
1379;DHT22;683;48.738;9.226;2023-06-19T10:15:13;27.90;53.90
1379;DHT22;683;48.738;9.226;2023-06-19T10:17:47;28.00;53.90
1379;DHT22;683;48.738;9.226;2023-06-19T10:20:23;28.20;53.30
1379;DHT22;683;48.738;9.226;2023-06-19T10:22:52;28.30;53.10
1379;DHT22;683;48.738;9.226;2023-06-19T10:25:21;28.40;52.80
1379;DHT22;683;48.738;9.226;2023-06-19T10:27:49;28.40;54.00
1379;DHT22;683;48.738;9.226;2023-06-19T10:30:18;28.40;54.30
1379;DHT22;683;48.738;9.226;2023-06-19T10:32:46;28.40;54.70
1379;DHT22;683;48.738;9.226;2023-06-19T10:35:15;28.40;54.70
1379;DHT22;683;48.738;9.226;2023-06-19T10:37:44;28.60;54.90
1379;DHT22;683;48.738;9.226;2023-06-19T10:40:12;28.80;53.80
1379;DHT22;683;48.738;9.226;2023-06-19T10:42:39;28.90;54.10
1379;DHT22;683;48.738;9.226;2023-06-19T10:45:09;29.00;54.00
1379;DHT22;683;48.738;9.226;2023-06-19T10:47:38;29.10;53.80
1379;DHT22;683;48.738;9.226;2023-06-19T10:50:10;29.20;53.90
1379;DHT22;683;48.738;9.226;2023-06-19T10:52:40;29.30;52.30
1379;DHT22;683;48.738;9.226;2023-06-19T10:55:11;29.50;52.60
1379;DHT22;683;48.738;9.226;2023-06-19T10:57:39;29.70;51.20
1379;DHT22;683;48.738;9.226;2023-06-19T11:00:08;29.90;51.00
1379;DHT22;683;48.738;9.226;2023-06-19T11:02:39;30.00;50.90
1379;DHT22;683;48.738;9.226;2023-06-19T11:05:10;30.10;50.30
1379;DHT22;683;48.738;9.226;2023-06-19T11:07:38;30.00;50.10
1379;DHT22;683;48.738;9.226;2023-06-19T11:10:07;30.00;50.10
1379;DHT22;683;48.738;9.226;2023-06-19T11:12:36;30.00;51.30
1379;DHT22;683;48.738;9.226;2023-06-19T11:15:04;29.90;51.70
1379;DHT22;683;48.738;9.226;2023-06-19T11:17:32;29.80;52.30
1379;DHT22;683;48.738;9.226;2023-06-19T11:20:00;29.70;52.60
1379;DHT22;683;48.738;9.226;2023-06-19T11:22:38;29.50;53.10
1379;DHT22;683;48.738;9.226;2023-06-19T11:25:07;29.40;53.90
1379;DHT22;683;48.738;9.226;2023-06-19T11:27:39;29.20;54.00
1379;DHT22;683;48.738;9.226;2023-06-19T11:30:07;29.00;54.40
1379;DHT22;683;48.738;9.226;2023-06-19T11:32:37;29.00;55.00
1379;DHT22;683;48.738;9.226;2023-06-19T11:35:11;29.10;55.50
1379;DHT22;683;48.738;9.226;2023-06-19T11:37:51;29.40;54.90
1379;DHT22;683;48.738;9.226;2023-06-19T11:40:19;29.60;54.00
1379;DHT22;683;48.738;9.226;2023-06-19T11:42:52;29.90;53.70
1379;DHT22;683;48.738;9.226;2023-06-19T11:45:21;30.10;53.70
1379;DHT22;683;48.738;9.226;2023-06-19T11:47:49;30.30;52.70
1379;DHT22;683;48.738;9.226;2023-06-19T11:50:17;30.40;51.60
1379;DHT22;683;48.738;9.226;2023-06-19T11:52:47;30.40;52.00
1379;DHT22;683;48.738;9.226;2023-06-19T11:55:14;30.40;52.50
1379;DHT22;683;48.738;9.226;2023-06-19T11:57:43;30.50;52.50
1379;DHT22;683;48.738;9.226;2023-06-19T12:00:16;30.60;51.60
1379;DHT22;683;48.738;9.226;2023-06-19T12:02:44;30.80;52.00
1379;DHT22;683;48.738;9.226;2023-06-19T12:05:13;30.70;49.50
1379;DHT22;683;48.738;9.226;2023-06-19T12:07:41;30.60;50.30
1379;DHT22;683;48.738;9.226;2023-06-19T12:10:09;30.60;50.60
1379;DHT22;683;48.738;9.226;2023-06-19T12:12:38;30.80;51.40
1379;DHT22;683;48.738;9.226;2023-06-19T12:15:06;31.00;50.70
1379;DHT22;683;48.738;9.226;2023-06-19T12:17:35;31.10;50.30
1379;DHT22;683;48.738;9.226;2023-06-19T12:20:04;31.00;50.30
1379;DHT22;683;48.738;9.226;2023-06-19T12:22:33;30.90;51.10
1379;DHT22;683;48.738;9.226;2023-06-19T12:25:01;31.10;51.30
1379;DHT22;683;48.738;9.226;2023-06-19T12:27:30;31.30;50.60
1379;DHT22;683;48.738;9.226;2023-06-19T12:29:57;31.60;50.20
1379;DHT22;683;48.738;9.226;2023-06-19T12:32:25;31.90;49.70
1379;DHT22;683;48.738;9.226;2023-06-19T12:34:54;32.10;49.60
1379;DHT22;683;48.738;9.226;2023-06-19T12:37:21;32.40;48.90
1379;DHT22;683;48.738;9.226;2023-06-19T12:39:49;32.70;48.00
1379;DHT22;683;48.738;9.226;2023-06-19T12:42:17;33.10;46.40
1379;DHT22;683;48.738;9.226;2023-06-19T12:44:45;33.60;45.40
1379;DHT22;683;48.738;9.226;2023-06-19T12:47:13;33.70;45.20
1379;DHT22;683;48.738;9.226;2023-06-19T12:49:41;33.90;45.60
1379;DHT22;683;48.738;9.226;2023-06-19T12:52:10;34.40;44.50
1379;DHT22;683;48.738;9.226;2023-06-19T12:54:38;35.20;43.50
1379;DHT22;683;48.738;9.226;2023-06-19T12:57:08;35.60;42.30
1379;DHT22;683;48.738;9.226;2023-06-19T12:59:35;35.90;41.70
1379;DHT22;683;48.738;9.226;2023-06-19T13:02:03;36.50;40.80
1379;DHT22;683;48.738;9.226;2023-06-19T13:04:31;37.30;39.00
1379;DHT22;683;48.738;9.226;2023-06-19T13:06:58;38.10;38.00
1379;DHT22;683;48.738;9.226;2023-06-19T13:09:27;39.00;36.30
1379;DHT22;683;48.738;9.226;2023-06-19T13:11:56;39.60;34.40
1379;DHT22;683;48.738;9.226;2023-06-19T13:14:23;40.20;34.30
1379;DHT22;683;48.738;9.226;2023-06-19T13:16:52;41.30;33.20
1379;DHT22;683;48.738;9.226;2023-06-19T13:19:21;42.30;31.80
1379;DHT22;683;48.738;9.226;2023-06-19T13:21:52;43.40;30.00
1379;DHT22;683;48.738;9.226;2023-06-19T13:24:23;44.40;29.20
1379;DHT22;683;48.738;9.226;2023-06-19T13:26:56;45.20;27.90
1379;DHT22;683;48.738;9.226;2023-06-19T13:29:24;45.20;27.30
1379;DHT22;683;48.738;9.226;2023-06-19T13:31:51;45.30;27.30
1379;DHT22;683;48.738;9.226;2023-06-19T13:34:19;45.60;27.50
1379;DHT22;683;48.738;9.226;2023-06-19T13:36:48;45.90;27.20
1379;DHT22;683;48.738;9.226;2023-06-19T13:39:16;45.90;26.90
1379;DHT22;683;48.738;9.226;2023-06-19T13:41:45;45.30;27.20
1379;DHT22;683;48.738;9.226;2023-06-19T13:44:14;45.00;27.40
1379;DHT22;683;48.738;9.226;2023-06-19T13:46:42;44.70;27.80
1379;DHT22;683;48.738;9.226;2023-06-19T13:49:09;44.60;28.00
1379;DHT22;683;48.738;9.226;2023-06-19T13:51:39;44.20;28.00
1379;DHT22;683;48.738;9.226;2023-06-19T13:54:07;44.30;28.10
1379;DHT22;683;48.738;9.226;2023-06-19T13:56:35;44.10;28.10
1379;DHT22;683;48.738;9.226;2023-06-19T13:59:03;44.10;28.10
1379;DHT22;683;48.738;9.226;2023-06-19T14:01:32;44.40;27.90
1379;DHT22;683;48.738;9.226;2023-06-19T14:04:00;44.90;27.50
1379;DHT22;683;48.738;9.226;2023-06-19T14:06:27;45.40;27.10
1379;DHT22;683;48.738;9.226;2023-06-19T14:08:54;45.60;26.70
1379;DHT22;683;48.738;9.226;2023-06-19T14:11:22;45.20;26.70
1379;DHT22;683;48.738;9.226;2023-06-19T14:13:49;44.70;26.90
1379;DHT22;683;48.738;9.226;2023-06-19T14:16:17;44.30;27.10
1379;DHT22;683;48.738;9.226;2023-06-19T14:18:46;44.20;27.10
1379;DHT22;683;48.738;9.226;2023-06-19T14:21:13;44.20;27.00
1379;DHT22;683;48.738;9.226;2023-06-19T14:23:41;43.90;27.10
1379;DHT22;683;48.738;9.226;2023-06-19T14:26:10;43.90;27.50
1379;DHT22;683;48.738;9.226;2023-06-19T14:28:38;44.20;27.40
1379;DHT22;683;48.738;9.226;2023-06-19T14:31:06;44.60;27.10
1379;DHT22;683;48.738;9.226;2023-06-19T14:33:33;45.00;27.00
1379;DHT22;683;48.738;9.226;2023-06-19T14:36:04;45.10;27.00
1379;DHT22;683;48.738;9.226;2023-06-19T14:38:32;45.20;26.90
1379;DHT22;683;48.738;9.226;2023-06-19T14:41:00;45.30;26.50
1379;DHT22;683;48.738;9.226;2023-06-19T14:43:28;45.10;26.70
1379;DHT22;683;48.738;9.226;2023-06-19T14:45:58;44.60;27.10
1379;DHT22;683;48.738;9.226;2023-06-19T14:48:26;44.10;27.30
1379;DHT22;683;48.738;9.226;2023-06-19T14:50:56;43.80;27.70
1379;DHT22;683;48.738;9.226;2023-06-19T14:53:25;43.40;28.10
1379;DHT22;683;48.738;9.226;2023-06-19T14:55:53;42.90;28.50
1379;DHT22;683;48.738;9.226;2023-06-19T14:58:20;42.50;29.00
1379;DHT22;683;48.738;9.226;2023-06-19T15:00:48;42.40;29.00
1379;DHT22;683;48.738;9.226;2023-06-19T15:03:16;42.10;29.10
1379;DHT22;683;48.738;9.226;2023-06-19T15:05:43;41.70;29.10
1379;DHT22;683;48.738;9.226;2023-06-19T15:08:11;41.30;29.60
1379;DHT22;683;48.738;9.226;2023-06-19T15:10:40;40.80;30.10
1379;DHT22;683;48.738;9.226;2023-06-19T15:13:09;40.30;30.70
1379;DHT22;683;48.738;9.226;2023-06-19T15:15:37;40.10;31.40
1379;DHT22;683;48.738;9.226;2023-06-19T15:18:04;40.30;31.50
1379;DHT22;683;48.738;9.226;2023-06-19T15:20:33;40.80;30.70
1379;DHT22;683;48.738;9.226;2023-06-19T15:23:00;41.50;30.00
1379;DHT22;683;48.738;9.226;2023-06-19T15:25:28;42.30;29.40
1379;DHT22;683;48.738;9.226;2023-06-19T15:27:57;43.00;28.80
1379;DHT22;683;48.738;9.226;2023-06-19T15:30:24;43.60;28.20
1379;DHT22;683;48.738;9.226;2023-06-19T15:32:52;44.20;27.60
1379;DHT22;683;48.738;9.226;2023-06-19T15:35:19;44.70;26.90
1379;DHT22;683;48.738;9.226;2023-06-19T15:37:47;44.90;26.50
1379;DHT22;683;48.738;9.226;2023-06-19T15:40:14;45.10;26.20
1379;DHT22;683;48.738;9.226;2023-06-19T15:42:42;45.30;25.90
1379;DHT22;683;48.738;9.226;2023-06-19T15:45:11;45.40;25.90
1379;DHT22;683;48.738;9.226;2023-06-19T15:47:40;45.50;26.10
1379;DHT22;683;48.738;9.226;2023-06-19T15:50:08;45.50;25.80
1379;DHT22;683;48.738;9.226;2023-06-19T15:52:36;45.30;25.60
1379;DHT22;683;48.738;9.226;2023-06-19T15:55:04;44.60;26.20
1379;DHT22;683;48.738;9.226;2023-06-19T15:57:32;43.80;26.70
1379;DHT22;683;48.738;9.226;2023-06-19T16:00:00;42.90;27.10
1379;DHT22;683;48.738;9.226;2023-06-19T16:02:40;41.90;27.80
1379;DHT22;683;48.738;9.226;2023-06-19T16:05:09;40.80;28.70
1379;DHT22;683;48.738;9.226;2023-06-19T16:07:36;39.80;29.60
1379;DHT22;683;48.738;9.226;2023-06-19T16:10:05;39.00;30.40
1379;DHT22;683;48.738;9.226;2023-06-19T16:12:33;38.30;31.40
1379;DHT22;683;48.738;9.226;2023-06-19T16:15:00;37.70;32.20
1379;DHT22;683;48.738;9.226;2023-06-19T16:17:29;37.10;33.00
1379;DHT22;683;48.738;9.226;2023-06-19T16:19:59;36.40;33.90
1379;DHT22;683;48.738;9.226;2023-06-19T16:22:26;35.90;34.50
1379;DHT22;683;48.738;9.226;2023-06-19T16:24:54;35.40;35.40
1379;DHT22;683;48.738;9.226;2023-06-19T16:27:21;34.90;35.50